sensor_id;sensor_type;location;lat;lon;timestamp;temperature;humidity
54960;DHT22;40860;51.710;8.736;2023-04-07T00:03:24;8.10;93.00
54960;DHT22;40860;51.710;8.736;2023-04-07T00:07:28;8.10;93.00
54960;DHT22;40860;51.710;8.736;2023-04-07T00:11:30;8.10;93.40
54960;DHT22;40860;51.710;8.736;2023-04-07T00:15:33;8.10;93.60
54960;DHT22;40860;51.710;8.736;2023-04-07T00:19:37;8.00;93.80
54960;DHT22;40860;51.710;8.736;2023-04-07T00:23:40;8.00;93.90
54960;DHT22;40860;51.710;8.736;2023-04-07T00:27:43;8.00;94.10
54960;DHT22;40860;51.710;8.736;2023-04-07T00:31:46;8.00;94.30
54960;DHT22;40860;51.710;8.736;2023-04-07T00:35:50;7.90;94.60
54960;DHT22;40860;51.710;8.736;2023-04-07T00:39:55;7.90;94.80
54960;DHT22;40860;51.710;8.736;2023-04-07T00:43:58;7.90;95.10
54960;DHT22;40860;51.710;8.736;2023-04-07T00:48:01;7.90;95.20
54960;DHT22;40860;51.710;8.736;2023-04-07T00:52:07;7.80;95.40
54960;DHT22;40860;51.710;8.736;2023-04-07T00:56:11;7.90;95.50
54960;DHT22;40860;51.710;8.736;2023-04-07T01:00:15;7.80;95.60
54960;DHT22;40860;51.710;8.736;2023-04-07T01:04:25;7.80;96.10
54960;DHT22;40860;51.710;8.736;2023-04-07T01:08:35;7.80;96.20
54960;DHT22;40860;51.710;8.736;2023-04-07T01:12:46;7.70;96.60
54960;DHT22;40860;51.710;8.736;2023-04-07T01:16:51;7.70;96.90
54960;DHT22;40860;51.710;8.736;2023-04-07T01:21:02;7.60;97.10
54960;DHT22;40860;51.710;8.736;2023-04-07T01:25:21;7.70;97.20
54960;DHT22;40860;51.710;8.736;2023-04-07T01:29:33;7.70;97.70
54960;DHT22;40860;51.710;8.736;2023-04-07T01:33:37;7.60;97.80
54960;DHT22;40860;51.710;8.736;2023-04-07T01:37:42;7.60;98.10
54960;DHT22;40860;51.710;8.736;2023-04-07T01:41:48;7.50;98.60
54960;DHT22;40860;51.710;8.736;2023-04-07T01:45:53;7.50;98.70
54960;DHT22;40860;51.710;8.736;2023-04-07T01:49:57;7.40;99.10
54960;DHT22;40860;51.710;8.736;2023-04-07T01:54:01;7.40;99.40
54960;DHT22;40860;51.710;8.736;2023-04-07T01:58:04;7.40;99.90
54960;DHT22;40860;51.710;8.736;2023-04-07T02:02:14;7.30;99.90
54960;DHT22;40860;51.710;8.736;2023-04-07T02:06:21;7.30;99.90
54960;DHT22;40860;51.710;8.736;2023-04-07T02:10:26;7.20;99.90
54960;DHT22;40860;51.710;8.736;2023-04-07T02:14:33;7.30;99.90
54960;DHT22;40860;51.710;8.736;2023-04-07T02:18:42;7.20;99.90
54960;DHT22;40860;51.710;8.736;2023-04-07T02:22:47;7.20;99.90
54960;DHT22;40860;51.710;8.736;2023-04-07T02:26:51;7.20;99.90
54960;DHT22;40860;51.710;8.736;2023-04-07T02:30:54;7.20;99.90
54960;DHT22;40860;51.710;8.736;2023-04-07T02:34:58;7.10;99.90
54960;DHT22;40860;51.710;8.736;2023-04-07T02:39:01;7.20;99.90
54960;DHT22;40860;51.710;8.736;2023-04-07T02:43:04;7.20;99.90
54960;DHT22;40860;51.710;8.736;2023-04-07T02:47:06;7.10;99.90
54960;DHT22;40860;51.710;8.736;2023-04-07T02:51:11;7.10;99.90
54960;DHT22;40860;51.710;8.736;2023-04-07T02:55:13;7.10;99.90
54960;DHT22;40860;51.710;8.736;2023-04-07T02:59:16;7.00;99.90
54960;DHT22;40860;51.710;8.736;2023-04-07T03:03:19;7.00;99.90
54960;DHT22;40860;51.710;8.736;2023-04-07T03:07:40;7.00;99.90
54960;DHT22;40860;51.710;8.736;2023-04-07T03:11:44;6.90;99.90
54960;DHT22;40860;51.710;8.736;2023-04-07T03:15:47;7.00;99.90
54960;DHT22;40860;51.710;8.736;2023-04-07T03:19:52;6.90;99.90
54960;DHT22;40860;51.710;8.736;2023-04-07T03:23:56;6.90;99.90
54960;DHT22;40860;51.710;8.736;2023-04-07T03:27:59;6.90;99.90
54960;DHT22;40860;51.710;8.736;2023-04-07T03:32:06;6.90;99.90
54960;DHT22;40860;51.710;8.736;2023-04-07T03:36:09;6.90;99.90
54960;DHT22;40860;51.710;8.736;2023-04-07T03:40:15;6.90;99.90
54960;DHT22;40860;51.710;8.736;2023-04-07T03:44:19;6.90;99.90
54960;DHT22;40860;51.710;8.736;2023-04-07T03:48:21;6.90;99.90
54960;DHT22;40860;51.710;8.736;2023-04-07T03:52:35;6.90;99.90
54960;DHT22;40860;51.710;8.736;2023-04-07T03:56:49;6.90;99.90
54960;DHT22;40860;51.710;8.736;2023-04-07T04:12:31;6.80;99.90
54960;DHT22;40860;51.710;8.736;2023-04-07T04:18:30;6.80;99.90
54960;DHT22;40860;51.710;8.736;2023-04-07T05:19:52;6.70;99.90
54960;DHT22;40860;51.710;8.736;2023-04-07T05:24:06;6.70;99.90
54960;DHT22;40860;51.710;8.736;2023-04-07T05:28:12;6.70;99.90
54960;DHT22;40860;51.710;8.736;2023-04-07T05:32:18;6.70;99.90
54960;DHT22;40860;51.710;8.736;2023-04-07T05:36:23;6.80;99.90
54960;DHT22;40860;51.710;8.736;2023-04-07T05:40:29;6.80;99.90
54960;DHT22;40860;51.710;8.736;2023-04-07T05:44:36;6.80;99.90
54960;DHT22;40860;51.710;8.736;2023-04-07T05:48:40;6.80;99.90
54960;DHT22;40860;51.710;8.736;2023-04-07T05:52:49;6.80;99.90
54960;DHT22;40860;51.710;8.736;2023-04-07T05:57:01;6.90;99.90
54960;DHT22;40860;51.710;8.736;2023-04-07T06:01:07;6.90;99.90
54960;DHT22;40860;51.710;8.736;2023-04-07T06:05:12;6.90;99.90
54960;DHT22;40860;51.710;8.736;2023-04-07T06:09:24;6.90;99.90
54960;DHT22;40860;51.710;8.736;2023-04-07T06:13:29;7.00;99.90
54960;DHT22;40860;51.710;8.736;2023-04-07T06:17:35;7.00;99.90
54960;DHT22;40860;51.710;8.736;2023-04-07T06:21:41;7.10;99.90
54960;DHT22;40860;51.710;8.736;2023-04-07T06:25:50;7.10;99.90
54960;DHT22;40860;51.710;8.736;2023-04-07T06:29:57;7.20;99.90
54960;DHT22;40860;51.710;8.736;2023-04-07T06:34:04;7.30;99.90
54960;DHT22;40860;51.710;8.736;2023-04-07T06:38:09;7.30;99.90
54960;DHT22;40860;51.710;8.736;2023-04-07T06:42:19;7.40;99.90
54960;DHT22;40860;51.710;8.736;2023-04-07T06:46:37;7.40;99.90
54960;DHT22;40860;51.710;8.736;2023-04-07T06:50:45;7.50;99.90
54960;DHT22;40860;51.710;8.736;2023-04-07T06:54:51;7.70;99.90
54960;DHT22;40860;51.710;8.736;2023-04-07T06:58:59;7.80;99.90
54960;DHT22;40860;51.710;8.736;2023-04-07T07:03:05;7.90;99.90
54960;DHT22;40860;51.710;8.736;2023-04-07T07:07:13;7.90;99.90
54960;DHT22;40860;51.710;8.736;2023-04-07T07:11:17;8.00;99.90
54960;DHT22;40860;51.710;8.736;2023-04-07T07:15:25;8.00;99.90
54960;DHT22;40860;51.710;8.736;2023-04-07T07:19:31;8.10;99.90
54960;DHT22;40860;51.710;8.736;2023-04-07T07:23:41;8.10;99.90
54960;DHT22;40860;51.710;8.736;2023-04-07T07:27:46;8.10;99.90
54960;DHT22;40860;51.710;8.736;2023-04-07T07:32:00;8.10;99.90
54960;DHT22;40860;51.710;8.736;2023-04-07T07:36:05;8.10;99.90
54960;DHT22;40860;51.710;8.736;2023-04-07T07:40:12;8.10;99.90
54960;DHT22;40860;51.710;8.736;2023-04-07T07:44:19;8.10;99.90
54960;DHT22;40860;51.710;8.736;2023-04-07T07:48:26;8.10;99.90
54960;DHT22;40860;51.710;8.736;2023-04-07T07:52:30;8.20;99.90
54960;DHT22;40860;51.710;8.736;2023-04-07T07:56:37;8.30;99.90
54960;DHT22;40860;51.710;8.736;2023-04-07T08:00:43;8.30;99.90
54960;DHT22;40860;51.710;8.736;2023-04-07T08:04:53;8.40;99.90
54960;DHT22;40860;51.710;8.736;2023-04-07T08:08:57;8.40;99.90
54960;DHT22;40860;51.710;8.736;2023-04-07T08:13:03;8.50;99.90
54960;DHT22;40860;51.710;8.736;2023-04-07T08:17:09;8.50;99.90
54960;DHT22;40860;51.710;8.736;2023-04-07T08:21:17;8.40;99.90
54960;DHT22;40860;51.710;8.736;2023-04-07T08:25:22;8.40;99.70
54960;DHT22;40860;51.710;8.736;2023-04-07T08:29:26;8.40;99.90
54960;DHT22;40860;51.710;8.736;2023-04-07T08:33:31;8.40;99.80
54960;DHT22;40860;51.710;8.736;2023-04-07T08:37:37;8.50;99.90
54960;DHT22;40860;51.710;8.736;2023-04-07T08:41:43;8.60;99.90
54960;DHT22;40860;51.710;8.736;2023-04-07T08:45:51;8.70;99.80
54960;DHT22;40860;51.710;8.736;2023-04-07T08:50:00;8.70;99.40
54960;DHT22;40860;51.710;8.736;2023-04-07T08:54:10;8.80;99.40
54960;DHT22;40860;51.710;8.736;2023-04-07T08:58:16;8.90;99.30
54960;DHT22;40860;51.710;8.736;2023-04-07T09:02:22;9.10;99.40
54960;DHT22;40860;51.710;8.736;2023-04-07T09:06:26;9.10;98.50
54960;DHT22;40860;51.710;8.736;2023-04-07T09:10:36;9.00;98.60
54960;DHT22;40860;51.710;8.736;2023-04-07T09:14:41;9.10;98.60
54960;DHT22;40860;51.710;8.736;2023-04-07T09:18:47;9.10;98.40
54960;DHT22;40860;51.710;8.736;2023-04-07T09:22:56;9.20;98.50
54960;DHT22;40860;51.710;8.736;2023-04-07T09:27:10;9.20;97.60
54960;DHT22;40860;51.710;8.736;2023-04-07T09:31:18;9.20;97.80
54960;DHT22;40860;51.710;8.736;2023-04-07T09:35:23;9.30;98.00
54960;DHT22;40860;51.710;8.736;2023-04-07T09:39:30;9.30;97.50
54960;DHT22;40860;51.710;8.736;2023-04-07T09:43:39;9.20;97.70
54960;DHT22;40860;51.710;8.736;2023-04-07T09:47:44;9.10;97.40
54960;DHT22;40860;51.710;8.736;2023-04-07T09:51:54;9.10;97.90
54960;DHT22;40860;51.710;8.736;2023-04-07T09:55:59;9.20;97.70
54960;DHT22;40860;51.710;8.736;2023-04-07T10:00:14;9.30;97.70
54960;DHT22;40860;51.710;8.736;2023-04-07T10:04:17;9.40;97.70
54960;DHT22;40860;51.710;8.736;2023-04-07T10:08:20;9.50;97.70
54960;DHT22;40860;51.710;8.736;2023-04-07T10:12:24;9.50;96.80
54960;DHT22;40860;51.710;8.736;2023-04-07T10:16:29;9.60;97.30
54960;DHT22;40860;51.710;8.736;2023-04-07T10:20:32;9.60;95.90
54960;DHT22;40860;51.710;8.736;2023-04-07T10:24:44;9.60;96.50
54960;DHT22;40860;51.710;8.736;2023-04-07T10:28:52;9.80;96.90
54960;DHT22;40860;51.710;8.736;2023-04-07T10:32:58;9.90;96.10
54960;DHT22;40860;51.710;8.736;2023-04-07T10:37:09;10.10;96.30
54960;DHT22;40860;51.710;8.736;2023-04-07T10:41:33;10.10;95.80
54960;DHT22;40860;51.710;8.736;2023-04-07T10:45:53;10.10;95.40
54960;DHT22;40860;51.710;8.736;2023-04-07T10:50:20;10.00;95.50
54960;DHT22;40860;51.710;8.736;2023-04-07T10:54:24;10.00;95.20
54960;DHT22;40860;51.710;8.736;2023-04-07T10:58:30;10.10;95.50
54960;DHT22;40860;51.710;8.736;2023-04-07T11:02:34;10.10;94.80
54960;DHT22;40860;51.710;8.736;2023-04-07T11:06:46;10.10;95.30
54960;DHT22;40860;51.710;8.736;2023-04-07T11:10:49;10.30;95.10
54960;DHT22;40860;51.710;8.736;2023-04-07T11:14:52;10.40;95.00
54960;DHT22;40860;51.710;8.736;2023-04-07T11:18:56;10.40;94.40
54960;DHT22;40860;51.710;8.736;2023-04-07T11:23:00;10.50;94.10
54960;DHT22;40860;51.710;8.736;2023-04-07T11:27:03;10.70;94.60
54960;DHT22;40860;51.710;8.736;2023-04-07T11:31:07;10.80;93.90
54960;DHT22;40860;51.710;8.736;2023-04-07T11:35:11;11.00;93.50
54960;DHT22;40860;51.710;8.736;2023-04-07T11:39:19;11.10;92.60
54960;DHT22;40860;51.710;8.736;2023-04-07T11:43:24;11.10;91.50
54960;DHT22;40860;51.710;8.736;2023-04-07T11:47:34;11.00;92.20
54960;DHT22;40860;51.710;8.736;2023-04-07T11:51:37;11.40;92.20
54960;DHT22;40860;51.710;8.736;2023-04-07T11:55:41;11.70;91.30
54960;DHT22;40860;51.710;8.736;2023-04-07T11:59:44;12.20;91.80
54960;DHT22;40860;51.710;8.736;2023-04-07T12:03:55;12.50;90.00
54960;DHT22;40860;51.710;8.736;2023-04-07T12:07:59;12.50;88.10
54960;DHT22;40860;51.710;8.736;2023-04-07T12:12:04;12.70;87.80
54960;DHT22;40860;51.710;8.736;2023-04-07T12:16:08;12.70;86.30
54960;DHT22;40860;51.710;8.736;2023-04-07T12:20:12;13.00;88.20
54960;DHT22;40860;51.710;8.736;2023-04-07T12:24:14;13.10;88.40
54960;DHT22;40860;51.710;8.736;2023-04-07T12:28:18;13.60;87.30
54960;DHT22;40860;51.710;8.736;2023-04-07T12:32:21;13.70;87.10
54960;DHT22;40860;51.710;8.736;2023-04-07T12:36:24;13.80;84.30
54960;DHT22;40860;51.710;8.736;2023-04-07T12:40:29;13.80;85.20
54960;DHT22;40860;51.710;8.736;2023-04-07T12:44:33;14.00;85.40
54960;DHT22;40860;51.710;8.736;2023-04-07T12:48:36;14.20;82.80
54960;DHT22;40860;51.710;8.736;2023-04-07T12:52:38;14.40;82.60
54960;DHT22;40860;51.710;8.736;2023-04-07T12:56:41;14.60;82.60
54960;DHT22;40860;51.710;8.736;2023-04-07T13:00:45;14.80;81.10
54960;DHT22;40860;51.710;8.736;2023-04-07T13:04:49;15.00;79.90
54960;DHT22;40860;51.710;8.736;2023-04-07T13:08:51;15.10;79.20
54960;DHT22;40860;51.710;8.736;2023-04-07T13:12:54;15.20;78.60
54960;DHT22;40860;51.710;8.736;2023-04-07T13:16:58;15.20;77.00
54960;DHT22;40860;51.710;8.736;2023-04-07T13:21:01;15.20;78.20
54960;DHT22;40860;51.710;8.736;2023-04-07T13:25:08;15.20;76.70
54960;DHT22;40860;51.710;8.736;2023-04-07T13:29:11;15.20;76.90
54960;DHT22;40860;51.710;8.736;2023-04-07T13:33:15;15.10;75.10
54960;DHT22;40860;51.710;8.736;2023-04-07T13:37:18;15.20;75.40
54960;DHT22;40860;51.710;8.736;2023-04-07T13:41:21;15.30;74.90
54960;DHT22;40860;51.710;8.736;2023-04-07T13:45:24;15.40;74.00
54960;DHT22;40860;51.710;8.736;2023-04-07T13:49:29;15.30;74.20
54960;DHT22;40860;51.710;8.736;2023-04-07T13:53:32;15.40;73.70
54960;DHT22;40860;51.710;8.736;2023-04-07T13:57:34;15.50;74.00
54960;DHT22;40860;51.710;8.736;2023-04-07T14:01:37;15.70;72.60
54960;DHT22;40860;51.710;8.736;2023-04-07T14:05:42;15.80;71.80
54960;DHT22;40860;51.710;8.736;2023-04-07T14:09:44;16.00;71.30
54960;DHT22;40860;51.710;8.736;2023-04-07T14:13:49;16.10;70.70
54960;DHT22;40860;51.710;8.736;2023-04-07T14:17:53;16.30;70.60
54960;DHT22;40860;51.710;8.736;2023-04-07T14:21:57;15.90;67.00
54960;DHT22;40860;51.710;8.736;2023-04-07T14:26:01;15.30;68.20
54960;DHT22;40860;51.710;8.736;2023-04-07T14:30:05;15.10;71.00
54960;DHT22;40860;51.710;8.736;2023-04-07T14:34:08;14.50;71.00
54960;DHT22;40860;51.710;8.736;2023-04-07T14:38:13;14.20;72.10
54960;DHT22;40860;51.710;8.736;2023-04-07T14:42:15;14.00;73.30
54960;DHT22;40860;51.710;8.736;2023-04-07T14:46:18;14.00;76.00
54960;DHT22;40860;51.710;8.736;2023-04-07T14:50:22;14.10;76.10
54960;DHT22;40860;51.710;8.736;2023-04-07T14:54:26;14.00;76.30
54960;DHT22;40860;51.710;8.736;2023-04-07T14:58:29;13.60;77.60
54960;DHT22;40860;51.710;8.736;2023-04-07T15:02:33;13.60;78.20
54960;DHT22;40860;51.710;8.736;2023-04-07T15:06:37;13.50;78.40
54960;DHT22;40860;51.710;8.736;2023-04-07T15:10:43;13.40;78.70
54960;DHT22;40860;51.710;8.736;2023-04-07T15:14:49;13.30;79.50
54960;DHT22;40860;51.710;8.736;2023-04-07T15:18:52;13.20;79.10
54960;DHT22;40860;51.710;8.736;2023-04-07T15:22:55;13.10;79.50
54960;DHT22;40860;51.710;8.736;2023-04-07T15:27:02;13.00;79.80
54960;DHT22;40860;51.710;8.736;2023-04-07T15:31:07;13.50;81.00
54960;DHT22;40860;51.710;8.736;2023-04-07T15:35:11;13.90;80.60
54960;DHT22;40860;51.710;8.736;2023-04-07T15:39:14;14.60;79.90
54960;DHT22;40860;51.710;8.736;2023-04-07T15:43:18;15.20;76.50
54960;DHT22;40860;51.710;8.736;2023-04-07T15:47:21;15.80;74.30
54960;DHT22;40860;51.710;8.736;2023-04-07T15:51:24;16.10;72.70
54960;DHT22;40860;51.710;8.736;2023-04-07T15:55:28;16.40;71.70
54960;DHT22;40860;51.710;8.736;2023-04-07T15:59:32;16.60;71.20
54960;DHT22;40860;51.710;8.736;2023-04-07T16:03:36;16.80;69.80
54960;DHT22;40860;51.710;8.736;2023-04-07T16:07:39;16.90;68.60
54960;DHT22;40860;51.710;8.736;2023-04-07T16:11:43;17.00;68.00
54960;DHT22;40860;51.710;8.736;2023-04-07T16:15:49;17.00;66.80
54960;DHT22;40860;51.710;8.736;2023-04-07T16:19:53;16.80;66.10
54960;DHT22;40860;51.710;8.736;2023-04-07T16:23:59;16.70;67.00
54960;DHT22;40860;51.710;8.736;2023-04-07T16:28:02;16.60;66.50
54960;DHT22;40860;51.710;8.736;2023-04-07T16:32:06;16.50;67.30
54960;DHT22;40860;51.710;8.736;2023-04-07T16:36:09;16.40;67.30
54960;DHT22;40860;51.710;8.736;2023-04-07T16:40:12;16.30;67.10
54960;DHT22;40860;51.710;8.736;2023-04-07T16:44:15;16.10;67.50
54960;DHT22;40860;51.710;8.736;2023-04-07T16:48:19;15.90;68.90
54960;DHT22;40860;51.710;8.736;2023-04-07T16:52:22;15.90;68.40
54960;DHT22;40860;51.710;8.736;2023-04-07T16:56:25;15.90;68.00
54960;DHT22;40860;51.710;8.736;2023-04-07T17:00:28;15.70;68.70
54960;DHT22;40860;51.710;8.736;2023-04-07T17:04:32;15.50;68.80
54960;DHT22;40860;51.710;8.736;2023-04-07T17:08:36;15.20;69.70
54960;DHT22;40860;51.710;8.736;2023-04-07T17:17:09;14.40;71.80
54960;DHT22;40860;51.710;8.736;2023-04-07T17:21:13;14.00;72.90
54960;DHT22;40860;51.710;8.736;2023-04-07T17:25:18;13.60;74.80
54960;DHT22;40860;51.710;8.736;2023-04-07T17:29:30;13.30;76.60
54960;DHT22;40860;51.710;8.736;2023-04-07T17:33:34;13.10;78.10
54960;DHT22;40860;51.710;8.736;2023-04-07T17:37:38;12.80;79.50
54960;DHT22;40860;51.710;8.736;2023-04-07T17:41:41;12.60;80.60
54960;DHT22;40860;51.710;8.736;2023-04-07T17:45:45;12.40;80.80
54960;DHT22;40860;51.710;8.736;2023-04-07T17:49:48;12.10;82.00
54960;DHT22;40860;51.710;8.736;2023-04-07T17:54:32;12.00;83.00
54960;DHT22;40860;51.710;8.736;2023-04-07T18:00:01;11.80;83.40
